Time;durP1;ratioP1;P1;durP2;ratioP2;P2;SDS_P1;SDS_P2;PMS_P1;PMS_P2;Temp;Humidity;BMP_temperature;BMP_pressure;BME280_temperature;BME280_humidity;BME280_pressure;Samples;Min_cycle;Max_cycle;Signal;HPM_P1;HPM_P2
2024/02/20 00:01:49;;;;;;;17.73;2.90;;;;;;;;;;4976205;28;20030;-81
2024/02/20 00:04:17;;;;;;;18.05;2.72;;;;;;;;;;4993091;28;20026;-82
2024/02/20 00:06:44;;;;;;;16.02;3.22;;;;;;;;;;4991905;28;20029;-82
2024/02/20 00:09:10;;;;;;;12.75;3.40;;;;;;;;;;4991161;28;20038;-82
2024/02/20 00:11:35;;;;;;;14.90;3.35;;;;;;;;;;4991342;28;20069;-82
2024/02/20 00:14:01;;;;;;;13.27;2.75;;;;;;;;;;4991563;28;20057;-82
2024/02/20 00:16:26;;;;;;;12.85;3.85;;;;;;;;;;4994449;28;20420;-82
2024/02/20 00:18:52;;;;;;;16.08;2.65;;;;;;;;;;4993869;28;20026;-82
2024/02/20 00:21:18;;;;;;;12.25;2.33;;;;;;;;;;4991633;28;20038;-82
2024/02/20 00:23:43;;;;;;;10.80;2.70;;;;;;;;;;4994305;28;20037;-82
2024/02/20 00:26:09;;;;;;;14.32;3.05;;;;;;;;;;4993922;28;20037;-82
2024/02/20 00:28:40;;;;;;;13.55;2.63;;;;;;;;;;4994433;28;20133;-82
2024/02/20 00:31:08;;;;;;;15.98;3.20;;;;;;;;;;4990147;28;20392;-81
2024/02/20 00:33:35;;;;;;;14.55;2.70;;;;;;;;;;4990680;28;20134;-82
2024/02/20 00:36:05;;;;;;;12.63;3.15;;;;;;;;;;4992953;28;20384;-82
2024/02/20 00:38:30;;;;;;;12.48;2.40;;;;;;;;;;4993220;28;20112;-82
2024/02/20 00:40:56;;;;;;;13.10;3.13;;;;;;;;;;4994191;28;20089;-82
2024/02/20 00:43:22;;;;;;;13.80;3.42;;;;;;;;;;4978822;28;20437;-82
2024/02/20 00:45:47;;;;;;;12.20;2.58;;;;;;;;;;4992063;28;20531;-82
2024/02/20 00:48:14;;;;;;;13.95;2.70;;;;;;;;;;4994205;28;20029;-82
2024/02/20 00:50:40;;;;;;;9.30;2.78;;;;;;;;;;4997180;28;20037;-82
2024/02/20 00:53:05;;;;;;;14.30;3.15;;;;;;;;;;4993026;28;20018;-82
2024/02/20 00:55:31;;;;;;;11.82;2.47;;;;;;;;;;4995527;28;20377;-82
2024/02/20 00:57:59;;;;;;;19.70;2.88;;;;;;;;;;4995759;28;20567;-82
2024/02/20 01:00:25;;;;;;;11.30;2.55;;;;;;;;;;4996367;28;20039;-82
2024/02/20 01:02:50;;;;;;;14.68;2.63;;;;;;;;;;4992501;28;20023;-82
2024/02/20 01:05:16;;;;;;;13.18;2.97;;;;;;;;;;4988508;28;20026;-82
2024/02/20 01:07:42;;;;;;;13.18;2.65;;;;;;;;;;4991700;28;20030;-82
2024/02/20 01:10:08;;;;;;;16.73;2.92;;;;;;;;;;4994251;28;20033;-82
2024/02/20 01:12:34;;;;;;;17.08;3.08;;;;;;;;;;4986822;28;20022;-82
2024/02/20 01:14:59;;;;;;;15.60;2.83;;;;;;;;;;4986948;28;20400;-81
2024/02/20 01:17:24;;;;;;;17.88;2.80;;;;;;;;;;4986557;28;20022;-82
2024/02/20 01:19:50;;;;;;;13.70;2.95;;;;;;;;;;4986181;28;20034;-82
2024/02/20 01:22:16;;;;;;;17.08;2.50;;;;;;;;;;4984251;28;20153;-82
2024/02/20 01:24:41;;;;;;;13.52;2.92;;;;;;;;;;4979735;28;20038;-81
2024/02/20 01:27:07;;;;;;;15.80;2.85;;;;;;;;;;4985355;28;20081;-82
2024/02/20 01:29:33;;;;;;;12.45;2.60;;;;;;;;;;4986318;28;20026;-87
2024/02/20 01:31:58;;;;;;;17.67;2.88;;;;;;;;;;4985752;28;20030;-88
2024/02/20 01:34:24;;;;;;;14.20;3.03;;;;;;;;;;4986762;28;20485;-88
2024/02/20 01:36:52;;;;;;;18.63;3.30;;;;;;;;;;4987886;28;20026;-88
2024/02/20 01:39:18;;;;;;;13.93;2.97;;;;;;;;;;4986089;28;20033;-88
2024/02/20 01:41:43;;;;;;;17.30;3.92;;;;;;;;;;4986984;28;20029;-88
2024/02/20 01:44:09;;;;;;;14.27;2.72;;;;;;;;;;4966897;28;20481;-88
2024/02/20 01:46:34;;;;;;;13.80;2.65;;;;;;;;;;4984976;28;20172;-88
2024/02/20 01:49:00;;;;;;;13.88;3.10;;;;;;;;;;4983768;28;20516;-88
2024/02/20 01:51:28;;;;;;;13.25;2.60;;;;;;;;;;4969325;28;20033;-87
2024/02/20 01:53:54;;;;;;;15.43;3.00;;;;;;;;;;4984775;28;20034;-88
2024/02/20 01:56:20;;;;;;;15.73;2.80;;;;;;;;;;4971190;28;20747;-88
2024/02/20 01:58:46;;;;;;;13.85;3.38;;;;;;;;;;4970280;28;20483;-88
2024/02/20 02:01:11;;;;;;;16.35;3.42;;;;;;;;;;4986503;28;20041;-82
2024/02/20 02:03:37;;;;;;;16.83;3.20;;;;;;;;;;5001771;23;20043;-82
2024/02/20 02:06:03;;;;;;;12.05;3.53;;;;;;;;;;4960187;28;20029;-82
2024/02/20 02:08:28;;;;;;;11.80;2.90;;;;;;;;;;4984916;28;20041;-83
2024/02/20 02:10:54;;;;;;;19.40;3.58;;;;;;;;;;4986140;28;20042;-82
2024/02/20 02:13:19;;;;;;;13.60;3.88;;;;;;;;;;4985821;28;20098;-82
2024/02/20 02:15:44;;;;;;;12.48;3.17;;;;;;;;;;4985709;28;20041;-82
2024/02/20 02:18:10;;;;;;;19.35;4.35;;;;;;;;;;4986872;28;20088;-82
2024/02/20 02:20:35;;;;;;;12.15;3.15;;;;;;;;;;4985794;28;20028;-82
2024/02/20 02:23:01;;;;;;;13.82;3.10;;;;;;;;;;4970206;28;20487;-82
2024/02/20 02:25:26;;;;;;;14.25;3.17;;;;;;;;;;4986295;28;20073;-81
2024/02/20 02:27:53;;;;;;;14.90;3.33;;;;;;;;;;4985149;28;20484;-81
2024/02/20 02:30:18;;;;;;;16.08;3.72;;;;;;;;;;4970407;28;20227;-81
2024/02/20 02:32:44;;;;;;;12.38;3.03;;;;;;;;;;4986420;28;20431;-80
2024/02/20 02:35:10;;;;;;;13.30;3.25;;;;;;;;;;4984473;28;20493;-81
2024/02/20 02:37:36;;;;;;;17.38;3.80;;;;;;;;;;4984331;28;20021;-81
2024/02/20 02:40:04;;;;;;;13.48;3.03;;;;;;;;;;4988669;28;20536;-81
2024/02/20 02:42:30;;;;;;;13.75;3.58;;;;;;;;;;4968942;28;20034;-80
2024/02/20 02:44:55;;;;;;;15.27;3.53;;;;;;;;;;4966805;28;20537;-80
2024/02/20 02:47:21;;;;;;;16.13;3.53;;;;;;;;;;4983305;28;20519;-80
2024/02/20 02:49:46;;;;;;;15.70;3.85;;;;;;;;;;4967787;28;20395;-80
2024/02/20 02:52:11;;;;;;;14.23;3.85;;;;;;;;;;4973488;28;20027;-81
2024/02/20 02:54:37;;;;;;;17.10;3.35;;;;;;;;;;4965269;28;20122;-80
2024/02/20 02:57:02;;;;;;;15.20;3.15;;;;;;;;;;4964266;28;20031;-80
2024/02/20 02:59:28;;;;;;;14.68;3.30;;;;;;;;;;4969319;28;20077;-82
2024/02/20 03:01:53;;;;;;;15.93;3.50;;;;;;;;;;4965123;28;20059;-80
2024/02/20 03:04:19;;;;;;;16.95;3.42;;;;;;;;;;4970650;28;20027;-80
2024/02/20 03:06:45;;;;;;;20.73;4.97;;;;;;;;;;4968238;28;20029;-81
2024/02/20 03:09:15;;;;;;;15.95;3.63;;;;;;;;;;4969441;28;20052;-82
2024/02/20 03:11:42;;;;;;;13.75;3.13;;;;;;;;;;4951932;28;20058;-81
2024/02/20 03:14:08;;;;;;;14.00;3.17;;;;;;;;;;4952018;28;20517;-82
2024/02/20 03:16:34;;;;;;;13.73;3.72;;;;;;;;;;4968360;28;20042;-82
2024/02/20 03:19:01;;;;;;;15.55;3.38;;;;;;;;;;4970161;28;20035;-82
2024/02/20 03:21:27;;;;;;;13.60;3.40;;;;;;;;;;4970000;28;20085;-82
2024/02/20 03:23:52;;;;;;;14.10;3.67;;;;;;;;;;4951423;28;20078;-82
2024/02/20 03:26:18;;;;;;;13.07;3.50;;;;;;;;;;4971029;28;20392;-82
2024/02/20 03:28:43;;;;;;;14.50;3.13;;;;;;;;;;4971739;28;20113;-82
2024/02/20 03:31:09;;;;;;;11.52;2.97;;;;;;;;;;4970023;28;20122;-82
2024/02/20 03:33:34;;;;;;;14.65;2.85;;;;;;;;;;4952949;28;20069;-82
2024/02/20 03:36:02;;;;;;;12.65;3.05;;;;;;;;;;4959531;28;20054;-82
2024/02/20 03:38:28;;;;;;;15.40;3.30;;;;;;;;;;4952004;28;20034;-82
2024/02/20 03:40:53;;;;;;;12.88;3.03;;;;;;;;;;4956027;28;20033;-82
2024/02/20 03:43:19;;;;;;;12.45;3.15;;;;;;;;;;4968254;28;20019;-81
2024/02/20 03:45:44;;;;;;;15.55;3.67;;;;;;;;;;4972155;28;20030;-82
2024/02/20 03:48:10;;;;;;;16.13;3.28;;;;;;;;;;4971270;28;20070;-82
2024/02/20 03:50:35;;;;;;;15.00;3.00;;;;;;;;;;4954996;28;20029;-82
2024/02/20 03:53:02;;;;;;;13.25;2.83;;;;;;;;;;4960351;28;20552;-82
2024/02/20 03:55:27;;;;;;;11.50;3.25;;;;;;;;;;4955088;28;20077;-82
2024/02/20 03:57:53;;;;;;;13.88;3.00;;;;;;;;;;4958452;28;20034;-82
2024/02/20 04:00:23;;;;;;;15.15;3.38;;;;;;;;;;4954748;28;20038;-83
2024/02/20 04:02:50;;;;;;;12.38;2.75;;;;;;;;;;4968202;28;20022;-82
2024/02/20 04:05:16;;;;;;;13.68;3.42;;;;;;;;;;4958678;28;20027;-82
2024/02/20 04:07:43;;;;;;;13.02;2.65;;;;;;;;;;4958842;28;20026;-81
2024/02/20 04:10:13;;;;;;;13.65;3.17;;;;;;;;;;4970380;28;20097;-80
2024/02/20 04:12:38;;;;;;;12.30;3.25;;;;;;;;;;4974485;28;20022;-80
2024/02/20 04:15:09;;;;;;;15.25;3.25;;;;;;;;;;4954406;28;20397;-80
2024/02/20 04:17:35;;;;;;;12.20;3.42;;;;;;;;;;4953231;28;20031;-81
2024/02/20 04:20:03;;;;;;;11.85;3.28;;;;;;;;;;4971884;28;20495;-81
2024/02/20 04:22:30;;;;;;;14.45;3.15;;;;;;;;;;4970348;28;20023;-81
2024/02/20 04:24:56;;;;;;;16.27;3.17;;;;;;;;;;4969962;28;20070;-80
2024/02/20 04:27:22;;;;;;;11.93;3.20;;;;;;;;;;4967615;28;20201;-81
2024/02/20 04:29:47;;;;;;;11.23;3.10;;;;;;;;;;4970347;28;20555;-79
2024/02/20 04:32:12;;;;;;;13.18;2.80;;;;;;;;;;4971241;28;20034;-79
2024/02/20 04:34:39;;;;;;;11.75;3.05;;;;;;;;;;4971616;28;20030;-80
2024/02/20 04:37:04;;;;;;;14.93;2.72;;;;;;;;;;4953984;28;20053;-79
2024/02/20 04:39:30;;;;;;;13.27;2.70;;;;;;;;;;4971882;28;20485;-80
2024/02/20 04:41:55;;;;;;;13.95;3.30;;;;;;;;;;4970735;28;20026;-79
2024/02/20 04:44:20;;;;;;;13.32;2.92;;;;;;;;;;4971433;28;20109;-80
2024/02/20 04:46:46;;;;;;;12.40;2.97;;;;;;;;;;4971480;28;20054;-79
2024/02/20 04:49:11;;;;;;;13.60;2.85;;;;;;;;;;4970828;28;20045;-80
2024/02/20 04:51:36;;;;;;;11.50;2.28;;;;;;;;;;4966446;28;20035;-79
2024/02/20 04:54:02;;;;;;;14.43;3.03;;;;;;;;;;4971255;28;20018;-79
2024/02/20 04:56:27;;;;;;;13.57;3.33;;;;;;;;;;4969670;28;20405;-80
2024/02/20 04:58:53;;;;;;;14.63;2.95;;;;;;;;;;4969886;28;20044;-80
2024/02/20 05:01:18;;;;;;;10.95;2.65;;;;;;;;;;4965831;28;20023;-80
2024/02/20 05:03:44;;;;;;;11.63;2.80;;;;;;;;;;4972010;28;20050;-80
2024/02/20 05:06:12;;;;;;;11.57;2.60;;;;;;;;;;4961506;28;20030;-80
2024/02/20 05:08:38;;;;;;;11.15;3.00;;;;;;;;;;4970738;28;20026;-80
2024/02/20 05:11:03;;;;;;;14.13;2.67;;;;;;;;;;4951658;28;20034;-80
2024/02/20 05:13:29;;;;;;;11.93;2.58;;;;;;;;;;4969412;28;20039;-80
2024/02/20 05:15:54;;;;;;;7.50;2.47;;;;;;;;;;4970053;28;20033;-79
2024/02/20 05:18:20;;;;;;;14.27;2.85;;;;;;;;;;4968463;28;20553;-80
2024/02/20 05:20:45;;;;;;;13.07;2.58;;;;;;;;;;4969572;28;20026;-79
2024/02/20 05:23:10;;;;;;;14.98;2.80;;;;;;;;;;4968941;28;20027;-79
2024/02/20 05:25:36;;;;;;;10.77;3.17;;;;;;;;;;4970009;28;20026;-80
2024/02/20 05:28:01;;;;;;;10.90;2.80;;;;;;;;;;4950634;28;20061;-80
2024/02/20 05:30:27;;;;;;;10.40;2.95;;;;;;;;;;4966311;28;20120;-79
2024/02/20 05:32:53;;;;;;;14.77;3.00;;;;;;;;;;4966134;28;20409;-79
2024/02/20 05:35:19;;;;;;;13.63;3.22;;;;;;;;;;4968978;28;20120;-80
2024/02/20 05:37:44;;;;;;;15.85;3.53;;;;;;;;;;4964429;28;20034;-80
2024/02/20 05:40:12;;;;;;;13.55;2.90;;;;;;;;;;4969809;28;20041;-80
2024/02/20 05:42:37;;;;;;;12.77;3.30;;;;;;;;;;4952343;28;20130;-80
2024/02/20 05:45:03;;;;;;;13.38;2.92;;;;;;;;;;4970075;28;20106;-80
2024/02/20 05:47:28;;;;;;;11.75;3.35;;;;;;;;;;4968264;28;20076;-80
2024/02/20 05:49:54;;;;;;;12.18;3.17;;;;;;;;;;4969735;28;20113;-80
2024/02/20 05:52:20;;;;;;;15.93;2.83;;;;;;;;;;4964722;28;20093;-80
2024/02/20 05:54:46;;;;;;;15.43;3.42;;;;;;;;;;4971375;28;20088;-80
2024/02/20 05:57:12;;;;;;;11.85;3.17;;;;;;;;;;4966873;28;20027;-80
2024/02/20 05:59:37;;;;;;;12.73;3.42;;;;;;;;;;4953972;28;20066;-80
2024/02/20 06:02:03;;;;;;;12.55;3.10;;;;;;;;;;4968732;28;20480;-79
2024/02/20 06:04:28;;;;;;;12.90;3.20;;;;;;;;;;4970020;28;20030;-79
2024/02/20 06:06:53;;;;;;;14.13;3.55;;;;;;;;;;4964849;28;20378;-80
2024/02/20 06:09:19;;;;;;;9.32;3.03;;;;;;;;;;4964971;28;20037;-79
2024/02/20 06:11:44;;;;;;;16.67;3.55;;;;;;;;;;4967162;28;20023;-79
2024/02/20 06:14:10;;;;;;;11.60;3.30;;;;;;;;;;4950473;28;20041;-80
2024/02/20 06:16:35;;;;;;;13.88;3.60;;;;;;;;;;4965897;28;20515;-80
2024/02/20 06:19:00;;;;;;;10.57;3.35;;;;;;;;;;4967749;28;20041;-79
2024/02/20 06:21:26;;;;;;;14.70;3.50;;;;;;;;;;4957568;28;21599;-79
2024/02/20 06:23:52;;;;;;;13.60;3.20;;;;;;;;;;4965769;28;20114;-79
2024/02/20 06:26:17;;;;;;;11.60;3.25;;;;;;;;;;4952815;28;20030;-79
2024/02/20 06:28:42;;;;;;;10.70;3.00;;;;;;;;;;4951890;28;20448;-80
2024/02/20 06:31:08;;;;;;;13.15;3.50;;;;;;;;;;4951397;28;20396;-80
2024/02/20 06:33:34;;;;;;;12.57;3.65;;;;;;;;;;4969396;28;20041;-80
2024/02/20 06:35:59;;;;;;;12.50;3.50;;;;;;;;;;4972278;28;20038;-80
2024/02/20 06:38:27;;;;;;;13.55;3.70;;;;;;;;;;4968930;28;20030;-79
2024/02/20 06:40:53;;;;;;;14.38;3.90;;;;;;;;;;4952640;28;20456;-79
2024/02/20 06:43:18;;;;;;;18.08;4.05;;;;;;;;;;4965403;28;20026;-80
2024/02/20 06:45:44;;;;;;;13.98;3.95;;;;;;;;;;4973100;28;20049;-79
2024/02/20 06:48:09;;;;;;;14.77;4.07;;;;;;;;;;4972670;28;20473;-80
2024/02/20 06:50:34;;;;;;;13.35;4.25;;;;;;;;;;4958656;28;20065;-80
2024/02/20 06:53:00;;;;;;;10.18;3.58;;;;;;;;;;4972770;28;20034;-80
2024/02/20 06:55:25;;;;;;;15.00;3.70;;;;;;;;;;4957385;28;20396;-80
2024/02/20 06:57:54;;;;;;;13.07;3.45;;;;;;;;;;4955836;28;20026;-80
2024/02/20 07:00:19;;;;;;;13.05;3.85;;;;;;;;;;4971476;28;20027;-80
2024/02/20 07:02:45;;;;;;;14.18;3.05;;;;;;;;;;4984803;28;20026;-80
2024/02/20 07:05:11;;;;;;;11.70;3.08;;;;;;;;;;4940170;28;20039;-80
2024/02/20 07:07:37;;;;;;;16.13;3.92;;;;;;;;;;4977151;28;20027;-80
2024/02/20 07:10:04;;;;;;;13.45;3.42;;;;;;;;;;4975877;28;20030;-80
2024/02/20 07:12:29;;;;;;;10.95;3.17;;;;;;;;;;4976898;28;20077;-80
2024/02/20 07:14:55;;;;;;;10.23;3.40;;;;;;;;;;4977955;28;20520;-80
2024/02/20 07:17:20;;;;;;;15.93;3.42;;;;;;;;;;4975661;28;20109;-80
2024/02/20 07:19:46;;;;;;;15.85;3.47;;;;;;;;;;4972754;28;20105;-80
2024/02/20 07:22:11;;;;;;;12.30;3.25;;;;;;;;;;4962008;28;20038;-80
2024/02/20 07:24:37;;;;;;;14.05;3.45;;;;;;;;;;4975772;28;20101;-80
2024/02/20 07:27:02;;;;;;;15.38;2.85;;;;;;;;;;4970806;28;20389;-80
2024/02/20 07:29:28;;;;;;;11.63;3.40;;;;;;;;;;4980523;28;20030;-80
2024/02/20 07:31:57;;;;;;;13.07;3.70;;;;;;;;;;4978814;28;20027;-80
2024/02/20 07:34:22;;;;;;;10.25;3.40;;;;;;;;;;4962915;28;20054;-80
2024/02/20 07:36:48;;;;;;;12.38;3.45;;;;;;;;;;4976770;28;20558;-80
2024/02/20 07:39:14;;;;;;;13.55;3.67;;;;;;;;;;4974512;28;20039;-80
2024/02/20 07:41:40;;;;;;;13.80;3.25;;;;;;;;;;4972907;28;20059;-80
2024/02/20 07:44:05;;;;;;;14.15;3.50;;;;;;;;;;4976652;28;20058;-80
2024/02/20 07:46:32;;;;;;;18.90;3.75;;;;;;;;;;4975735;28;20030;-80
2024/02/20 07:48:58;;;;;;;15.77;3.58;;;;;;;;;;4958313;28;20256;-80
2024/02/20 07:51:23;;;;;;;13.65;3.75;;;;;;;;;;4979500;28;20543;-80
2024/02/20 07:53:50;;;;;;;11.73;3.40;;;;;;;;;;4962815;28;20050;-80
2024/02/20 07:56:25;;;;;;;12.40;4.03;;;;;;;;;;4966479;28;20089;-80
2024/02/20 07:58:51;;;;;;;20.20;4.35;;;;;;;;;;4970240;28;20062;-80
2024/02/20 08:01:18;;;;;;;13.85;3.75;;;;;;;;;;4961763;28;20019;-80
2024/02/20 08:03:44;;;;;;;13.70;3.80;;;;;;;;;;4964725;28;20444;-80
2024/02/20 08:06:09;;;;;;;14.27;3.97;;;;;;;;;;4963217;28;20026;-80
2024/02/20 08:08:35;;;;;;;15.50;3.92;;;;;;;;;;4959788;28;20027;-81
2024/02/20 08:11:00;;;;;;;14.50;3.70;;;;;;;;;;4976885;28;20036;-81
2024/02/20 08:13:26;;;;;;;13.65;3.80;;;;;;;;;;4978586;28;20064;-80
2024/02/20 08:15:51;;;;;;;12.23;3.95;;;;;;;;;;4974684;28;20469;-80
2024/02/20 08:18:17;;;;;;;11.82;3.80;;;;;;;;;;4973829;28;20041;-81
2024/02/20 08:20:42;;;;;;;14.93;4.00;;;;;;;;;;4977555;28;20038;-81
2024/02/20 08:23:07;;;;;;;18.17;4.25;;;;;;;;;;4972525;28;20050;-81
2024/02/20 08:25:33;;;;;;;13.43;3.95;;;;;;;;;;4976965;28;20022;-80
2024/02/20 08:27:58;;;;;;;18.88;4.57;;;;;;;;;;4975014;28;20452;-80
2024/02/20 08:30:26;;;;;;;16.40;4.03;;;;;;;;;;4980433;28;20548;-80
2024/02/20 08:32:51;;;;;;;13.55;4.03;;;;;;;;;;4982952;28;20132;-80
2024/02/20 08:35:19;;;;;;;14.82;4.70;;;;;;;;;;4965483;28;20504;-80
2024/02/20 08:37:45;;;;;;;21.05;4.80;;;;;;;;;;4979822;28;20039;-80
2024/02/20 08:40:11;;;;;;;16.30;4.90;;;;;;;;;;4976076;28;20056;-80
2024/02/20 08:42:37;;;;;;;19.90;5.10;;;;;;;;;;4974266;28;20106;-80
2024/02/20 08:45:04;;;;;;;18.20;5.43;;;;;;;;;;4972016;28;20113;-80
2024/02/20 08:47:31;;;;;;;15.40;4.45;;;;;;;;;;4978474;28;20019;-80
2024/02/20 08:49:57;;;;;;;14.20;4.50;;;;;;;;;;4973897;28;20030;-80
2024/02/20 08:52:22;;;;;;;17.55;5.07;;;;;;;;;;4956961;28;20041;-80
2024/02/20 08:54:48;;;;;;;17.08;4.82;;;;;;;;;;4975559;28;20033;-80
2024/02/20 08:57:13;;;;;;;18.58;4.60;;;;;;;;;;4974943;28;20026;-81
2024/02/20 08:59:38;;;;;;;18.45;4.80;;;;;;;;;;4976536;28;20028;-81
2024/02/20 09:02:04;;;;;;;15.48;5.32;;;;;;;;;;4976173;28;20177;-80
2024/02/20 09:04:31;;;;;;;20.92;5.43;;;;;;;;;;4968131;28;20499;-80
2024/02/20 09:06:57;;;;;;;13.63;4.30;;;;;;;;;;4957901;28;20030;-81
2024/02/20 09:09:23;;;;;;;20.00;5.68;;;;;;;;;;4982268;28;20033;-80
2024/02/20 09:11:49;;;;;;;14.95;4.78;;;;;;;;;;4975888;28;20031;-80
2024/02/20 09:14:15;;;;;;;17.88;5.20;;;;;;;;;;4973028;28;20130;-80
2024/02/20 09:16:40;;;;;;;14.55;5.60;;;;;;;;;;4961613;28;20026;-80
2024/02/20 09:19:06;;;;;;;16.48;5.30;;;;;;;;;;4956271;28;20034;-80
2024/02/20 09:21:31;;;;;;;16.67;4.65;;;;;;;;;;4975517;28;20105;-80
2024/02/20 09:23:57;;;;;;;16.45;5.88;;;;;;;;;;4982349;28;20027;-80
2024/02/20 09:26:23;;;;;;;16.45;5.30;;;;;;;;;;4965407;28;20030;-80
2024/02/20 09:28:48;;;;;;;12.23;4.88;;;;;;;;;;4959406;28;20030;-81
2024/02/20 09:31:14;;;;;;;16.83;5.50;;;;;;;;;;4974241;28;20485;-81
2024/02/20 09:33:39;;;;;;;19.35;5.68;;;;;;;;;;4956268;28;20090;-81
2024/02/20 09:36:05;;;;;;;23.55;6.07;;;;;;;;;;4965895;28;20030;-81
2024/02/20 09:38:31;;;;;;;25.52;6.32;;;;;;;;;;4976332;28;20035;-81
2024/02/20 09:40:59;;;;;;;16.45;6.45;;;;;;;;;;4978227;28;20046;-81
2024/02/20 09:43:25;;;;;;;17.20;6.10;;;;;;;;;;4974190;28;20030;-81
2024/02/20 09:45:51;;;;;;;14.95;5.80;;;;;;;;;;4973574;28;20077;-81
2024/02/20 09:48:18;;;;;;;18.83;5.88;;;;;;;;;;4967216;28;20031;-81
2024/02/20 09:50:47;;;;;;;18.90;6.07;;;;;;;;;;4977375;28;20100;-80
2024/02/20 09:53:13;;;;;;;19.40;6.35;;;;;;;;;;4973391;28;20137;-80
2024/02/20 09:55:39;;;;;;;21.35;6.85;;;;;;;;;;4958318;28;20037;-81
2024/02/20 09:58:05;;;;;;;21.15;6.97;;;;;;;;;;4972097;28;20031;-81
2024/02/20 10:00:30;;;;;;;17.20;6.15;;;;;;;;;;4970756;28;20026;-81
2024/02/20 10:02:59;;;;;;;16.30;7.05;;;;;;;;;;4978949;28;20468;-81
2024/02/20 10:05:26;;;;;;;20.55;7.22;;;;;;;;;;4975080;28;20035;-80
2024/02/20 10:07:59;;;;;;;17.77;6.75;;;;;;;;;;4957771;28;20097;-81
2024/02/20 10:10:27;;;;;;;19.52;7.53;;;;;;;;;;4977217;28;20110;-81
2024/02/20 10:12:59;;;;;;;16.27;6.85;;;;;;;;;;4975896;28;20023;-81
2024/02/20 10:15:24;;;;;;;22.88;7.22;;;;;;;;;;4979303;28;20038;-81
2024/02/20 10:17:59;;;;;;;21.58;7.63;;;;;;;;;;4955737;28;20031;-81
2024/02/20 10:20:25;;;;;;;24.70;8.57;;;;;;;;;;4959544;28;20030;-81
2024/02/20 10:22:50;;;;;;;19.25;7.28;;;;;;;;;;4977007;28;20050;-81
2024/02/20 10:25:16;;;;;;;20.10;6.88;;;;;;;;;;4969962;28;20110;-81
2024/02/20 10:27:41;;;;;;;16.40;6.47;;;;;;;;;;4959429;28;20027;-81
2024/02/20 10:30:07;;;;;;;17.65;6.68;;;;;;;;;;4963752;28;20392;-81
2024/02/20 10:32:37;;;;;;;18.92;7.68;;;;;;;;;;4972680;28;20022;-81
2024/02/20 10:35:05;;;;;;;25.80;8.07;;;;;;;;;;4970302;28;20027;-81
2024/02/20 10:37:31;;;;;;;20.63;8.00;;;;;;;;;;4971406;28;20041;-81
2024/02/20 10:40:11;;;;;;;19.33;7.50;;;;;;;;;;4972533;28;20027;-81
2024/02/20 10:42:38;;;;;;;21.33;7.50;;;;;;;;;;4973520;28;20054;-81
2024/02/20 10:45:11;;;;;;;24.73;7.65;;;;;;;;;;4952865;28;20022;-81
2024/02/20 10:47:43;;;;;;;23.50;7.03;;;;;;;;;;4969827;28;20483;-81
2024/02/20 10:50:09;;;;;;;20.35;7.05;;;;;;;;;;4980076;28;20047;-80
2024/02/20 10:52:38;;;;;;;27.52;8.25;;;;;;;;;;4972621;28;20039;-80
2024/02/20 10:55:10;;;;;;;22.38;8.07;;;;;;;;;;4973498;28;20109;-80
2024/02/20 10:57:39;;;;;;;25.02;8.10;;;;;;;;;;4960536;28;20049;-80
2024/02/20 11:00:11;;;;;;;18.42;7.78;;;;;;;;;;4960037;28;20031;-80
2024/02/20 11:02:40;;;;;;;29.98;8.75;;;;;;;;;;4953343;28;20485;-80
2024/02/20 11:05:06;;;;;;;22.67;7.30;;;;;;;;;;4973884;28;20184;-81
2024/02/20 11:07:33;;;;;;;24.55;8.93;;;;;;;;;;4964988;28;20061;-80
2024/02/20 11:10:08;;;;;;;23.42;8.30;;;;;;;;;;4973108;28;20093;-80
2024/02/20 11:12:34;;;;;;;26.73;8.23;;;;;;;;;;4974131;28;20042;-80
2024/02/20 11:15:19;;;;;;;24.67;8.02;;;;;;;;;;4971165;28;20437;-80
2024/02/20 11:17:51;;;;;;;22.73;7.20;;;;;;;;;;4953972;28;20449;-81
2024/02/20 11:20:21;;;;;;;23.52;7.32;;;;;;;;;;4960355;28;20090;-80
2024/02/20 11:22:51;;;;;;;25.27;7.55;;;;;;;;;;4977167;28;20031;-80
2024/02/20 11:25:20;;;;;;;21.70;6.72;;;;;;;;;;4982027;28;20026;-81
2024/02/20 11:27:47;;;;;;;26.48;7.47;;;;;;;;;;4957181;28;20480;-80
2024/02/20 11:37:34;;;;;;;21.58;6.85;;;;;;;;;;4909140;29;20035;-82
2024/02/20 11:39:59;;;;;;;22.75;8.13;;;;;;;;;;4917589;28;20457;-79
2024/02/20 11:42:25;;;;;;;22.65;7.70;;;;;;;;;;4965197;28;20061;-79
2024/02/20 11:44:50;;;;;;;23.30;8.77;;;;;;;;;;4977079;28;20026;-79
2024/02/20 11:47:16;;;;;;;19.20;7.43;;;;;;;;;;4960139;28;20026;-82
2024/02/20 11:49:41;;;;;;;22.33;7.55;;;;;;;;;;4976905;28;20041;-79
2024/02/20 11:52:08;;;;;;;19.13;7.15;;;;;;;;;;4956376;28;20441;-80
2024/02/20 11:54:33;;;;;;;22.67;6.70;;;;;;;;;;4986690;28;20026;-79
2024/02/20 11:56:59;;;;;;;20.40;7.22;;;;;;;;;;4965576;28;20077;-79
2024/02/20 11:59:25;;;;;;;18.73;6.85;;;;;;;;;;4980961;28;20603;-79
2024/02/20 12:01:50;;;;;;;23.67;7.18;;;;;;;;;;4978949;28;20030;-80
2024/02/20 12:04:26;;;;;;;22.75;6.90;;;;;;;;;;4980558;28;20519;-80
2024/02/20 12:06:52;;;;;;;17.83;6.68;;;;;;;;;;4985078;28;20030;-79
2024/02/20 12:09:17;;;;;;;18.13;7.03;;;;;;;;;;4959964;28;20049;-81
2024/02/20 12:11:52;;;;;;;29.95;7.78;;;;;;;;;;4961619;28;20114;-81
2024/02/20 12:14:18;;;;;;;20.75;6.85;;;;;;;;;;4957823;28;20058;-81
2024/02/20 12:16:43;;;;;;;19.23;6.40;;;;;;;;;;4970823;28;20473;-81
2024/02/20 12:19:10;;;;;;;24.55;6.72;;;;;;;;;;4983431;28;20053;-80
2024/02/20 12:21:37;;;;;;;17.35;5.85;;;;;;;;;;4961020;28;20437;-81
2024/02/20 12:24:07;;;;;;;19.13;6.50;;;;;;;;;;4976583;28;20026;-81
2024/02/20 12:26:33;;;;;;;21.75;6.63;;;;;;;;;;4977963;28;20063;-81
2024/02/20 12:28:58;;;;;;;18.95;6.57;;;;;;;;;;4966194;28;20095;-81
2024/02/20 12:31:26;;;;;;;18.65;5.78;;;;;;;;;;4968536;28;20388;-81
2024/02/20 12:33:52;;;;;;;23.60;6.45;;;;;;;;;;4972523;28;20023;-81
2024/02/20 12:36:18;;;;;;;21.92;5.78;;;;;;;;;;4962970;28;20030;-81
2024/02/20 12:38:43;;;;;;;25.05;6.00;;;;;;;;;;4975638;28;20026;-80
2024/02/20 12:41:09;;;;;;;26.65;6.97;;;;;;;;;;4961739;28;20039;-81
2024/02/20 12:43:35;;;;;;;21.75;6.03;;;;;;;;;;4976253;28;20377;-81
2024/02/20 12:46:00;;;;;;;16.30;5.10;;;;;;;;;;4982105;28;20026;-80
2024/02/20 12:48:26;;;;;;;21.63;5.03;;;;;;;;;;4980083;28;20385;-80
2024/02/20 12:50:51;;;;;;;18.20;4.78;;;;;;;;;;4978387;28;20172;-81
2024/02/20 12:53:17;;;;;;;18.10;4.80;;;;;;;;;;4979145;28;20023;-81
2024/02/20 12:55:42;;;;;;;18.02;5.20;;;;;;;;;;4974445;28;20031;-81
2024/02/20 12:58:09;;;;;;;24.38;5.72;;;;;;;;;;4977681;28;20033;-81
2024/02/20 13:00:35;;;;;;;18.90;4.90;;;;;;;;;;4962401;28;20027;-80
2024/02/20 13:03:01;;;;;;;21.25;5.50;;;;;;;;;;4957677;28;20061;-79
2024/02/20 13:05:32;;;;;;;22.15;5.65;;;;;;;;;;4956504;28;20043;-79
2024/02/20 13:07:59;;;;;;;22.52;5.10;;;;;;;;;;4979483;28;20031;-80
2024/02/20 13:10:31;;;;;;;17.60;5.43;;;;;;;;;;4975517;28;20022;-80
2024/02/20 13:13:00;;;;;;;22.65;5.80;;;;;;;;;;4972439;28;20022;-80
2024/02/20 13:15:26;;;;;;;21.15;5.75;;;;;;;;;;4975930;28;20033;-80
2024/02/20 13:17:55;;;;;;;15.85;4.60;;;;;;;;;;4979404;28;20022;-80
2024/02/20 13:20:25;;;;;;;20.95;4.82;;;;;;;;;;4959065;28;20035;-80
2024/02/20 13:22:51;;;;;;;20.23;4.90;;;;;;;;;;4967986;28;20026;-80
2024/02/20 13:25:16;;;;;;;23.13;5.45;;;;;;;;;;4969049;28;20034;-79
2024/02/20 13:27:41;;;;;;;26.95;5.55;;;;;;;;;;4959091;28;20023;-79
2024/02/20 13:30:07;;;;;;;20.55;4.97;;;;;;;;;;4964607;28;20562;-79
2024/02/20 13:32:33;;;;;;;20.40;4.63;;;;;;;;;;4956679;28;20030;-79
2024/02/20 13:34:59;;;;;;;19.25;4.60;;;;;;;;;;4976047;28;20054;-79
2024/02/20 13:37:26;;;;;;;18.85;4.78;;;;;;;;;;4959340;28;20026;-79
2024/02/20 13:39:52;;;;;;;13.27;4.18;;;;;;;;;;4971496;28;20027;-79
2024/02/20 13:42:17;;;;;;;17.73;4.60;;;;;;;;;;4985821;28;20081;-79
2024/02/20 13:44:43;;;;;;;14.20;4.78;;;;;;;;;;4976130;28;20034;-78
2024/02/20 13:47:08;;;;;;;16.67;5.22;;;;;;;;;;4973839;28;20027;-79
2024/02/20 13:49:34;;;;;;;18.25;5.40;;;;;;;;;;4963662;28;20392;-80
2024/02/20 13:51:59;;;;;;;17.33;5.15;;;;;;;;;;4975832;28;20536;-80
2024/02/20 13:54:27;;;;;;;16.88;5.38;;;;;;;;;;4978613;28;20504;-80
2024/02/20 13:56:53;;;;;;;14.30;5.47;;;;;;;;;;4971362;28;20142;-79
2024/02/20 13:59:19;;;;;;;18.42;5.65;;;;;;;;;;4973585;28;20115;-79
2024/02/20 14:01:45;;;;;;;13.88;5.25;;;;;;;;;;4969884;28;20229;-80
2024/02/20 14:04:10;;;;;;;19.38;6.00;;;;;;;;;;4952576;28;20098;-80
2024/02/20 14:06:36;;;;;;;14.75;5.65;;;;;;;;;;4978460;28;20105;-80
2024/02/20 14:09:05;;;;;;;14.38;5.25;;;;;;;;;;4969839;28;20030;-80
2024/02/20 14:11:31;;;;;;;14.82;6.03;;;;;;;;;;4972790;28;20065;-79
2024/02/20 14:13:57;;;;;;;20.88;6.10;;;;;;;;;;4978136;28;20045;-80
2024/02/20 14:16:22;;;;;;;14.35;5.40;;;;;;;;;;4961004;28;20499;-80
2024/02/20 14:18:48;;;;;;;17.27;6.38;;;;;;;;;;4962357;28;20035;-79
2024/02/20 14:21:13;;;;;;;19.33;5.80;;;;;;;;;;4972588;28;20030;-80
2024/02/20 14:23:42;;;;;;;19.77;5.82;;;;;;;;;;4957538;28;20042;-79
2024/02/20 14:26:08;;;;;;;14.18;5.72;;;;;;;;;;4972408;28;20031;-79
2024/02/20 14:28:36;;;;;;;19.13;6.20;;;;;;;;;;4960707;28;20019;-79
2024/02/20 14:31:01;;;;;;;17.02;5.85;;;;;;;;;;4973112;28;20027;-78
2024/02/20 14:33:27;;;;;;;17.73;6.03;;;;;;;;;;4978144;28;20029;-79